sensor_id;sensor_type;location;lat;lon;timestamp;P1;durP1;ratioP1;P2;durP2;ratioP2
71048;SDS011;58704;53.358;-6.238;2024-03-08T00:02:02;51.58;;;22.65;;
71048;SDS011;58704;53.358;-6.238;2024-03-08T00:04:28;52.00;;;20.97;;
71048;SDS011;58704;53.358;-6.238;2024-03-08T00:06:53;54.57;;;21.23;;
71048;SDS011;58704;53.358;-6.238;2024-03-08T00:09:18;48.43;;;21.60;;
71048;SDS011;58704;53.358;-6.238;2024-03-08T00:11:43;54.27;;;21.70;;
71048;SDS011;58704;53.358;-6.238;2024-03-08T00:14:09;48.50;;;19.60;;
71048;SDS011;58704;53.358;-6.238;2024-03-08T00:16:34;46.13;;;21.70;;
71048;SDS011;58704;53.358;-6.238;2024-03-08T00:19:00;50.45;;;20.58;;
71048;SDS011;58704;53.358;-6.238;2024-03-08T00:21:25;44.53;;;19.37;;
71048;SDS011;58704;53.358;-6.238;2024-03-08T00:23:52;45.88;;;19.33;;
71048;SDS011;58704;53.358;-6.238;2024-03-08T00:26:19;48.35;;;19.65;;
71048;SDS011;58704;53.358;-6.238;2024-03-08T00:28:45;46.53;;;18.87;;
71048;SDS011;58704;53.358;-6.238;2024-03-08T00:31:10;52.33;;;18.13;;
71048;SDS011;58704;53.358;-6.238;2024-03-08T00:33:35;40.20;;;18.53;;
71048;SDS011;58704;53.358;-6.238;2024-03-08T00:36:01;40.55;;;18.02;;
71048;SDS011;58704;53.358;-6.238;2024-03-08T00:38:27;51.87;;;18.50;;
71048;SDS011;58704;53.358;-6.238;2024-03-08T00:40:52;49.45;;;19.50;;
71048;SDS011;58704;53.358;-6.238;2024-03-08T00:43:18;46.90;;;17.73;;
71048;SDS011;58704;53.358;-6.238;2024-03-08T00:45:43;44.57;;;17.73;;
71048;SDS011;58704;53.358;-6.238;2024-03-08T00:48:08;47.93;;;18.83;;
71048;SDS011;58704;53.358;-6.238;2024-03-08T00:50:34;43.47;;;18.38;;
71048;SDS011;58704;53.358;-6.238;2024-03-08T00:52:59;43.67;;;18.07;;
71048;SDS011;58704;53.358;-6.238;2024-03-08T00:55:25;48.77;;;17.40;;
71048;SDS011;58704;53.358;-6.238;2024-03-08T00:57:50;48.47;;;17.13;;
71048;SDS011;58704;53.358;-6.238;2024-03-08T01:00:15;37.97;;;17.83;;
71048;SDS011;58704;53.358;-6.238;2024-03-08T01:02:41;40.22;;;16.65;;
71048;SDS011;58704;53.358;-6.238;2024-03-08T01:05:07;50.33;;;19.33;;
71048;SDS011;58704;53.358;-6.238;2024-03-08T01:07:35;41.70;;;17.80;;
71048;SDS011;58704;53.358;-6.238;2024-03-08T01:10:03;39.03;;;17.85;;
71048;SDS011;58704;53.358;-6.238;2024-03-08T01:12:28;44.47;;;17.17;;
71048;SDS011;58704;53.358;-6.238;2024-03-08T01:14:54;41.95;;;18.30;;
71048;SDS011;58704;53.358;-6.238;2024-03-08T01:17:19;44.10;;;18.87;;
71048;SDS011;58704;53.358;-6.238;2024-03-08T01:19:44;43.17;;;17.80;;
71048;SDS011;58704;53.358;-6.238;2024-03-08T01:22:10;38.77;;;18.80;;
71048;SDS011;58704;53.358;-6.238;2024-03-08T01:24:35;52.77;;;19.13;;
71048;SDS011;58704;53.358;-6.238;2024-03-08T01:27:00;49.13;;;18.23;;
71048;SDS011;58704;53.358;-6.238;2024-03-08T01:29:27;43.85;;;18.70;;
71048;SDS011;58704;53.358;-6.238;2024-03-08T01:31:54;52.92;;;18.35;;
71048;SDS011;58704;53.358;-6.238;2024-03-08T01:34:19;46.00;;;18.13;;
71048;SDS011;58704;53.358;-6.238;2024-03-08T01:36:46;49.67;;;18.20;;
71048;SDS011;58704;53.358;-6.238;2024-03-08T01:39:11;46.40;;;17.83;;
71048;SDS011;58704;53.358;-6.238;2024-03-08T01:41:36;37.83;;;17.73;;
71048;SDS011;58704;53.358;-6.238;2024-03-08T01:44:02;44.03;;;18.07;;
71048;SDS011;58704;53.358;-6.238;2024-03-08T01:46:28;46.13;;;17.33;;
71048;SDS011;58704;53.358;-6.238;2024-03-08T01:48:53;41.25;;;18.00;;
71048;SDS011;58704;53.358;-6.238;2024-03-08T01:51:19;43.13;;;16.23;;
71048;SDS011;58704;53.358;-6.238;2024-03-08T01:53:45;41.57;;;17.33;;
71048;SDS011;58704;53.358;-6.238;2024-03-08T01:56:11;40.72;;;17.58;;
71048;SDS011;58704;53.358;-6.238;2024-03-08T01:58:38;46.92;;;17.80;;
71048;SDS011;58704;53.358;-6.238;2024-03-08T02:01:05;41.53;;;16.85;;
71048;SDS011;58704;53.358;-6.238;2024-03-08T02:03:31;37.10;;;16.97;;
71048;SDS011;58704;53.358;-6.238;2024-03-08T02:05:59;40.58;;;17.20;;
71048;SDS011;58704;53.358;-6.238;2024-03-08T02:08:24;41.97;;;18.53;;
71048;SDS011;58704;53.358;-6.238;2024-03-08T02:10:50;42.30;;;18.03;;
71048;SDS011;58704;53.358;-6.238;2024-03-08T02:13:15;43.45;;;16.90;;
71048;SDS011;58704;53.358;-6.238;2024-03-08T02:15:59;39.53;;;17.07;;
71048;SDS011;58704;53.358;-6.238;2024-03-08T02:18:25;41.63;;;16.42;;
71048;SDS011;58704;53.358;-6.238;2024-03-08T02:20:51;43.00;;;17.57;;
71048;SDS011;58704;53.358;-6.238;2024-03-08T02:23:17;41.53;;;18.05;;
71048;SDS011;58704;53.358;-6.238;2024-03-08T02:25:42;35.80;;;17.13;;
71048;SDS011;58704;53.358;-6.238;2024-03-08T02:28:10;46.10;;;17.63;;
71048;SDS011;58704;53.358;-6.238;2024-03-08T02:30:36;48.10;;;17.05;;
71048;SDS011;58704;53.358;-6.238;2024-03-08T02:33:01;42.27;;;17.00;;
71048;SDS011;58704;53.358;-6.238;2024-03-08T02:35:26;40.53;;;16.33;;
71048;SDS011;58704;53.358;-6.238;2024-03-08T02:37:51;37.40;;;17.30;;
71048;SDS011;58704;53.358;-6.238;2024-03-08T02:40:17;39.73;;;16.13;;
71048;SDS011;58704;53.358;-6.238;2024-03-08T02:42:42;39.90;;;16.00;;
71048;SDS011;58704;53.358;-6.238;2024-03-08T02:45:08;39.45;;;15.93;;
71048;SDS011;58704;53.358;-6.238;2024-03-08T02:47:35;40.08;;;16.00;;
71048;SDS011;58704;53.358;-6.238;2024-03-08T02:50:00;36.97;;;17.53;;
71048;SDS011;58704;53.358;-6.238;2024-03-08T02:52:26;37.30;;;16.45;;
71048;SDS011;58704;53.358;-6.238;2024-03-08T02:54:51;49.60;;;15.90;;
71048;SDS011;58704;53.358;-6.238;2024-03-08T02:57:17;35.13;;;15.83;;
71048;SDS011;58704;53.358;-6.238;2024-03-08T02:59:43;34.53;;;16.08;;
71048;SDS011;58704;53.358;-6.238;2024-03-08T03:02:08;41.83;;;15.37;;
71048;SDS011;58704;53.358;-6.238;2024-03-08T03:04:35;34.83;;;16.17;;
71048;SDS011;58704;53.358;-6.238;2024-03-08T03:07:00;33.97;;;15.33;;
71048;SDS011;58704;53.358;-6.238;2024-03-08T03:09:26;35.63;;;15.40;;
71048;SDS011;58704;53.358;-6.238;2024-03-08T03:11:53;36.55;;;15.57;;
71048;SDS011;58704;53.358;-6.238;2024-03-08T03:14:18;40.33;;;15.70;;
71048;SDS011;58704;53.358;-6.238;2024-03-08T03:16:44;35.38;;;14.45;;
71048;SDS011;58704;53.358;-6.238;2024-03-08T03:19:10;36.78;;;15.65;;
71048;SDS011;58704;53.358;-6.238;2024-03-08T03:21:36;34.73;;;15.37;;
71048;SDS011;58704;53.358;-6.238;2024-03-08T03:24:03;33.03;;;14.87;;
71048;SDS011;58704;53.358;-6.238;2024-03-08T03:26:29;33.90;;;14.43;;
71048;SDS011;58704;53.358;-6.238;2024-03-08T03:28:56;37.15;;;14.73;;
71048;SDS011;58704;53.358;-6.238;2024-03-08T03:31:22;32.75;;;13.85;;
71048;SDS011;58704;53.358;-6.238;2024-03-08T03:33:49;33.53;;;14.23;;
71048;SDS011;58704;53.358;-6.238;2024-03-08T03:36:16;35.20;;;15.10;;
71048;SDS011;58704;53.358;-6.238;2024-03-08T03:38:41;32.40;;;15.77;;
71048;SDS011;58704;53.358;-6.238;2024-03-08T03:41:07;32.17;;;13.90;;
71048;SDS011;58704;53.358;-6.238;2024-03-08T03:43:35;27.23;;;13.35;;
71048;SDS011;58704;53.358;-6.238;2024-03-08T03:46:02;30.77;;;13.25;;
71048;SDS011;58704;53.358;-6.238;2024-03-08T03:48:30;27.52;;;14.30;;
71048;SDS011;58704;53.358;-6.238;2024-03-08T03:50:57;28.27;;;13.18;;
71048;SDS011;58704;53.358;-6.238;2024-03-08T03:53:22;36.47;;;13.33;;
71048;SDS011;58704;53.358;-6.238;2024-03-08T03:55:47;31.23;;;13.47;;
71048;SDS011;58704;53.358;-6.238;2024-03-08T03:58:12;32.80;;;13.33;;
71048;SDS011;58704;53.358;-6.238;2024-03-08T04:00:38;33.77;;;14.77;;
71048;SDS011;58704;53.358;-6.238;2024-03-08T04:03:03;27.50;;;12.87;;
71048;SDS011;58704;53.358;-6.238;2024-03-08T04:05:29;33.20;;;13.73;;
71048;SDS011;58704;53.358;-6.238;2024-03-08T04:07:54;36.20;;;12.98;;
71048;SDS011;58704;53.358;-6.238;2024-03-08T04:10:19;30.40;;;14.10;;
71048;SDS011;58704;53.358;-6.238;2024-03-08T04:12:45;35.43;;;12.60;;
71048;SDS011;58704;53.358;-6.238;2024-03-08T04:15:10;27.63;;;13.43;;
71048;SDS011;58704;53.358;-6.238;2024-03-08T04:17:36;33.40;;;14.43;;
71048;SDS011;58704;53.358;-6.238;2024-03-08T04:20:02;29.25;;;13.32;;
71048;SDS011;58704;53.358;-6.238;2024-03-08T04:22:32;30.25;;;13.70;;
71048;SDS011;58704;53.358;-6.238;2024-03-08T04:25:00;32.85;;;13.07;;
71048;SDS011;58704;53.358;-6.238;2024-03-08T04:27:25;33.43;;;15.07;;
71048;SDS011;58704;53.358;-6.238;2024-03-08T04:29:50;38.43;;;13.43;;
71048;SDS011;58704;53.358;-6.238;2024-03-08T04:32:16;30.67;;;14.07;;
71048;SDS011;58704;53.358;-6.238;2024-03-08T04:34:42;31.63;;;12.87;;
71048;SDS011;58704;53.358;-6.238;2024-03-08T04:37:07;34.27;;;14.00;;
71048;SDS011;58704;53.358;-6.238;2024-03-08T04:39:35;30.55;;;13.13;;
71048;SDS011;58704;53.358;-6.238;2024-03-08T04:42:02;32.77;;;13.20;;
71048;SDS011;58704;53.358;-6.238;2024-03-08T04:44:31;29.63;;;12.93;;
71048;SDS011;58704;53.358;-6.238;2024-03-08T04:46:58;32.72;;;13.10;;
71048;SDS011;58704;53.358;-6.238;2024-03-08T04:49:23;31.93;;;13.90;;
71048;SDS011;58704;53.358;-6.238;2024-03-08T04:51:49;42.47;;;12.97;;
71048;SDS011;58704;53.358;-6.238;2024-03-08T04:54:14;34.93;;;12.77;;
71048;SDS011;58704;53.358;-6.238;2024-03-08T04:56:39;30.57;;;12.50;;
71048;SDS011;58704;53.358;-6.238;2024-03-08T04:59:04;28.03;;;12.43;;
71048;SDS011;58704;53.358;-6.238;2024-03-08T05:01:33;33.22;;;12.88;;
71048;SDS011;58704;53.358;-6.238;2024-03-08T05:03:58;30.77;;;12.80;;
71048;SDS011;58704;53.358;-6.238;2024-03-08T05:06:23;28.10;;;12.10;;
71048;SDS011;58704;53.358;-6.238;2024-03-08T05:08:48;26.90;;;13.43;;
71048;SDS011;58704;53.358;-6.238;2024-03-08T05:11:13;36.77;;;12.53;;
71048;SDS011;58704;53.358;-6.238;2024-03-08T05:13:39;34.87;;;13.27;;
71048;SDS011;58704;53.358;-6.238;2024-03-08T05:16:05;31.98;;;13.95;;
71048;SDS011;58704;53.358;-6.238;2024-03-08T05:18:32;33.15;;;13.45;;
71048;SDS011;58704;53.358;-6.238;2024-03-08T05:20:57;34.47;;;13.33;;
71048;SDS011;58704;53.358;-6.238;2024-03-08T05:23:22;33.70;;;12.57;;
71048;SDS011;58704;53.358;-6.238;2024-03-08T05:25:48;34.10;;;13.97;;
71048;SDS011;58704;53.358;-6.238;2024-03-08T05:28:13;27.83;;;13.60;;
71048;SDS011;58704;53.358;-6.238;2024-03-08T05:30:38;29.43;;;12.53;;
71048;SDS011;58704;53.358;-6.238;2024-03-08T05:33:04;32.07;;;12.20;;
71048;SDS011;58704;53.358;-6.238;2024-03-08T05:35:29;30.30;;;13.00;;
71048;SDS011;58704;53.358;-6.238;2024-03-08T05:37:54;30.87;;;14.30;;
71048;SDS011;58704;53.358;-6.238;2024-03-08T05:40:19;33.10;;;13.70;;
71048;SDS011;58704;53.358;-6.238;2024-03-08T05:42:45;35.07;;;12.73;;
71048;SDS011;58704;53.358;-6.238;2024-03-08T05:45:11;26.85;;;12.07;;
71048;SDS011;58704;53.358;-6.238;2024-03-08T05:47:36;32.77;;;13.23;;
71048;SDS011;58704;53.358;-6.238;2024-03-08T05:50:04;28.80;;;12.38;;
71048;SDS011;58704;53.358;-6.238;2024-03-08T05:52:29;32.37;;;13.17;;
71048;SDS011;58704;53.358;-6.238;2024-03-08T05:54:54;31.57;;;13.07;;
71048;SDS011;58704;53.358;-6.238;2024-03-08T05:57:19;28.70;;;12.33;;
71048;SDS011;58704;53.358;-6.238;2024-03-08T05:59:47;26.13;;;12.00;;
71048;SDS011;58704;53.358;-6.238;2024-03-08T06:02:13;30.58;;;13.20;;
71048;SDS011;58704;53.358;-6.238;2024-03-08T06:04:41;29.50;;;13.07;;
71048;SDS011;58704;53.358;-6.238;2024-03-08T06:07:07;36.50;;;14.10;;
71048;SDS011;58704;53.358;-6.238;2024-03-08T06:09:37;36.08;;;13.60;;
71048;SDS011;58704;53.358;-6.238;2024-03-08T06:12:02;29.80;;;12.50;;
71048;SDS011;58704;53.358;-6.238;2024-03-08T06:14:29;29.73;;;13.40;;
71048;SDS011;58704;53.358;-6.238;2024-03-08T06:16:55;33.83;;;12.83;;
71048;SDS011;58704;53.358;-6.238;2024-03-08T06:19:20;28.37;;;13.50;;
71048;SDS011;58704;53.358;-6.238;2024-03-08T06:21:45;30.73;;;14.57;;
71048;SDS011;58704;53.358;-6.238;2024-03-08T06:24:10;30.03;;;13.60;;
71048;SDS011;58704;53.358;-6.238;2024-03-08T06:26:36;30.07;;;13.10;;
71048;SDS011;58704;53.358;-6.238;2024-03-08T06:29:02;29.58;;;13.55;;
71048;SDS011;58704;53.358;-6.238;2024-03-08T06:31:28;35.33;;;13.87;;
71048;SDS011;58704;53.358;-6.238;2024-03-08T06:33:53;29.97;;;13.40;;
71048;SDS011;58704;53.358;-6.238;2024-03-08T06:36:19;34.58;;;14.32;;
71048;SDS011;58704;53.358;-6.238;2024-03-08T06:38:46;30.60;;;14.03;;
71048;SDS011;58704;53.358;-6.238;2024-03-08T06:41:11;30.17;;;13.90;;
71048;SDS011;58704;53.358;-6.238;2024-03-08T06:43:43;31.50;;;14.30;;
71048;SDS011;58704;53.358;-6.238;2024-03-08T06:46:08;31.13;;;14.10;;
71048;SDS011;58704;53.358;-6.238;2024-03-08T06:48:34;29.93;;;13.77;;
71048;SDS011;58704;53.358;-6.238;2024-03-08T06:51:00;36.13;;;13.98;;
71048;SDS011;58704;53.358;-6.238;2024-03-08T06:53:25;29.10;;;14.57;;
71048;SDS011;58704;53.358;-6.238;2024-03-08T06:55:50;37.23;;;14.60;;
71048;SDS011;58704;53.358;-6.238;2024-03-08T06:58:16;35.87;;;13.73;;
71048;SDS011;58704;53.358;-6.238;2024-03-08T07:00:41;32.23;;;15.30;;
71048;SDS011;58704;53.358;-6.238;2024-03-08T07:03:07;28.48;;;13.32;;
71048;SDS011;58704;53.358;-6.238;2024-03-08T07:05:37;30.08;;;13.75;;
71048;SDS011;58704;53.358;-6.238;2024-03-08T07:08:02;32.03;;;13.47;;
71048;SDS011;58704;53.358;-6.238;2024-03-08T07:10:27;32.67;;;14.33;;
71048;SDS011;58704;53.358;-6.238;2024-03-08T07:12:53;35.78;;;14.40;;
71048;SDS011;58704;53.358;-6.238;2024-03-08T07:15:19;30.20;;;13.77;;
71048;SDS011;58704;53.358;-6.238;2024-03-08T07:17:45;34.70;;;14.23;;
71048;SDS011;58704;53.358;-6.238;2024-03-08T07:20:11;36.50;;;14.77;;
71048;SDS011;58704;53.358;-6.238;2024-03-08T07:22:38;37.40;;;14.57;;
71048;SDS011;58704;53.358;-6.238;2024-03-08T07:25:07;27.63;;;13.10;;
71048;SDS011;58704;53.358;-6.238;2024-03-08T07:27:32;32.50;;;14.82;;
71048;SDS011;58704;53.358;-6.238;2024-03-08T07:29:59;34.88;;;14.93;;
71048;SDS011;58704;53.358;-6.238;2024-03-08T07:32:25;33.15;;;14.73;;
71048;SDS011;58704;53.358;-6.238;2024-03-08T07:34:51;31.30;;;13.80;;
71048;SDS011;58704;53.358;-6.238;2024-03-08T07:37:17;28.95;;;13.25;;
71048;SDS011;58704;53.358;-6.238;2024-03-08T07:39:42;28.47;;;13.40;;
71048;SDS011;58704;53.358;-6.238;2024-03-08T07:42:08;31.33;;;14.93;;
71048;SDS011;58704;53.358;-6.238;2024-03-08T07:44:33;34.60;;;13.83;;
71048;SDS011;58704;53.358;-6.238;2024-03-08T07:46:59;40.87;;;14.93;;
71048;SDS011;58704;53.358;-6.238;2024-03-08T07:49:24;36.00;;;14.23;;
71048;SDS011;58704;53.358;-6.238;2024-03-08T07:51:49;36.77;;;13.87;;
71048;SDS011;58704;53.358;-6.238;2024-03-08T07:54:15;32.20;;;13.27;;
71048;SDS011;58704;53.358;-6.238;2024-03-08T07:56:40;36.78;;;13.57;;
71048;SDS011;58704;53.358;-6.238;2024-03-08T07:59:05;30.87;;;14.30;;
71048;SDS011;58704;53.358;-6.238;2024-03-08T08:01:31;33.17;;;13.67;;
71048;SDS011;58704;53.358;-6.238;2024-03-08T08:03:58;29.83;;;14.13;;
71048;SDS011;58704;53.358;-6.238;2024-03-08T08:06:23;33.17;;;13.80;;
71048;SDS011;58704;53.358;-6.238;2024-03-08T08:08:48;36.07;;;14.53;;
71048;SDS011;58704;53.358;-6.238;2024-03-08T08:11:14;31.00;;;14.05;;
71048;SDS011;58704;53.358;-6.238;2024-03-08T08:13:40;35.00;;;14.07;;
71048;SDS011;58704;53.358;-6.238;2024-03-08T08:16:08;35.23;;;14.23;;
71048;SDS011;58704;53.358;-6.238;2024-03-08T08:18:33;31.80;;;14.15;;
71048;SDS011;58704;53.358;-6.238;2024-03-08T08:21:00;28.57;;;13.40;;
71048;SDS011;58704;53.358;-6.238;2024-03-08T08:23:25;27.88;;;13.43;;
71048;SDS011;58704;53.358;-6.238;2024-03-08T08:25:50;27.97;;;13.60;;
71048;SDS011;58704;53.358;-6.238;2024-03-08T08:28:18;29.97;;;12.90;;
71048;SDS011;58704;53.358;-6.238;2024-03-08T08:30:44;30.58;;;12.85;;
71048;SDS011;58704;53.358;-6.238;2024-03-08T08:33:09;31.40;;;13.67;;
71048;SDS011;58704;53.358;-6.238;2024-03-08T08:35:35;29.63;;;14.20;;
71048;SDS011;58704;53.358;-6.238;2024-03-08T08:38:01;30.27;;;13.67;;
71048;SDS011;58704;53.358;-6.238;2024-03-08T08:40:28;30.42;;;13.85;;
71048;SDS011;58704;53.358;-6.238;2024-03-08T08:42:55;29.55;;;13.20;;
71048;SDS011;58704;53.358;-6.238;2024-03-08T08:45:22;28.43;;;13.83;;
71048;SDS011;58704;53.358;-6.238;2024-03-08T08:47:48;31.80;;;14.90;;
71048;SDS011;58704;53.358;-6.238;2024-03-08T08:50:14;35.33;;;15.70;;
71048;SDS011;58704;53.358;-6.238;2024-03-08T08:52:41;37.85;;;15.52;;
71048;SDS011;58704;53.358;-6.238;2024-03-08T08:55:08;37.42;;;16.95;;
71048;SDS011;58704;53.358;-6.238;2024-03-08T08:57:34;37.60;;;16.30;;
71048;SDS011;58704;53.358;-6.238;2024-03-08T09:00:00;36.45;;;16.20;;
71048;SDS011;58704;53.358;-6.238;2024-03-08T09:02:25;37.07;;;16.47;;
71048;SDS011;58704;53.358;-6.238;2024-03-08T09:04:51;34.67;;;15.63;;
71048;SDS011;58704;53.358;-6.238;2024-03-08T09:07:16;35.43;;;15.63;;
71048;SDS011;58704;53.358;-6.238;2024-03-08T09:09:43;35.80;;;15.65;;
71048;SDS011;58704;53.358;-6.238;2024-03-08T09:12:09;36.47;;;16.90;;
71048;SDS011;58704;53.358;-6.238;2024-03-08T09:14:38;35.25;;;15.73;;
71048;SDS011;58704;53.358;-6.238;2024-03-08T09:17:03;35.00;;;17.27;;
71048;SDS011;58704;53.358;-6.238;2024-03-08T09:19:29;38.23;;;18.03;;
71048;SDS011;58704;53.358;-6.238;2024-03-08T09:21:54;38.90;;;16.97;;
71048;SDS011;58704;53.358;-6.238;2024-03-08T09:24:19;39.53;;;18.47;;
71048;SDS011;58704;53.358;-6.238;2024-03-08T09:26:45;39.05;;;17.75;;
71048;SDS011;58704;53.358;-6.238;2024-03-08T09:29:11;36.03;;;18.40;;
71048;SDS011;58704;53.358;-6.238;2024-03-08T09:31:36;40.00;;;18.30;;
71048;SDS011;58704;53.358;-6.238;2024-03-08T09:34:03;38.70;;;18.08;;
71048;SDS011;58704;53.358;-6.238;2024-03-08T09:36:28;39.43;;;19.60;;
71048;SDS011;58704;53.358;-6.238;2024-03-08T09:38:53;41.80;;;18.87;;
71048;SDS011;58704;53.358;-6.238;2024-03-08T09:41:18;36.73;;;18.07;;
71048;SDS011;58704;53.358;-6.238;2024-03-08T09:43:44;38.00;;;18.47;;
71048;SDS011;58704;53.358;-6.238;2024-03-08T09:46:10;39.78;;;19.67;;
71048;SDS011;58704;53.358;-6.238;2024-03-08T09:48:36;37.50;;;18.70;;
71048;SDS011;58704;53.358;-6.238;2024-03-08T09:51:02;42.63;;;18.90;;
71048;SDS011;58704;53.358;-6.238;2024-03-08T09:53:28;39.92;;;17.58;;
71048;SDS011;58704;53.358;-6.238;2024-03-08T09:55:53;34.77;;;17.17;;
71048;SDS011;58704;53.358;-6.238;2024-03-08T09:58:18;36.05;;;17.63;;
71048;SDS011;58704;53.358;-6.238;2024-03-08T10:00:59;37.17;;;17.27;;
71048;SDS011;58704;53.358;-6.238;2024-03-08T10:03:29;37.50;;;17.95;;
71048;SDS011;58704;53.358;-6.238;2024-03-08T10:05:56;38.90;;;18.03;;
71048;SDS011;58704;53.358;-6.238;2024-03-08T10:08:25;41.00;;;18.03;;
71048;SDS011;58704;53.358;-6.238;2024-03-08T10:10:50;37.27;;;18.93;;
71048;SDS011;58704;53.358;-6.238;2024-03-08T10:13:16;39.33;;;17.73;;
71048;SDS011;58704;53.358;-6.238;2024-03-08T10:15:43;43.25;;;17.30;;
71048;SDS011;58704;53.358;-6.238;2024-03-08T10:18:09;38.30;;;16.63;;
71048;SDS011;58704;53.358;-6.238;2024-03-08T10:20:35;34.70;;;17.33;;
71048;SDS011;58704;53.358;-6.238;2024-03-08T10:23:01;35.70;;;17.17;;
71048;SDS011;58704;53.358;-6.238;2024-03-08T10:25:28;36.17;;;16.77;;
71048;SDS011;58704;53.358;-6.238;2024-03-08T10:27:55;40.22;;;17.83;;
71048;SDS011;58704;53.358;-6.238;2024-03-08T10:30:20;37.07;;;18.23;;
71048;SDS011;58704;53.358;-6.238;2024-03-08T10:32:46;38.80;;;19.20;;
71048;SDS011;58704;53.358;-6.238;2024-03-08T10:35:12;38.75;;;17.55;;
71048;SDS011;58704;53.358;-6.238;2024-03-08T10:37:58;37.73;;;17.93;;
71048;SDS011;58704;53.358;-6.238;2024-03-08T10:40:27;36.83;;;18.10;;
71048;SDS011;58704;53.358;-6.238;2024-03-08T10:42:53;33.90;;;17.48;;
71048;SDS011;58704;53.358;-6.238;2024-03-08T10:47:47;42.80;;;18.60;;
71048;SDS011;58704;53.358;-6.238;2024-03-08T10:50:20;39.33;;;18.38;;
71048;SDS011;58704;53.358;-6.238;2024-03-08T10:52:50;40.17;;;19.48;;
71048;SDS011;58704;53.358;-6.238;2024-03-08T10:55:17;43.47;;;18.73;;
71048;SDS011;58704;53.358;-6.238;2024-03-08T10:57:42;43.40;;;19.30;;
71048;SDS011;58704;53.358;-6.238;2024-03-08T11:00:08;41.25;;;19.23;;
71048;SDS011;58704;53.358;-6.238;2024-03-08T11:02:37;47.30;;;19.80;;
71048;SDS011;58704;53.358;-6.238;2024-03-08T11:05:07;39.10;;;18.40;;
71048;SDS011;58704;53.358;-6.238;2024-03-08T11:07:34;37.55;;;18.67;;
71048;SDS011;58704;53.358;-6.238;2024-03-08T11:10:03;40.13;;;18.88;;
71048;SDS011;58704;53.358;-6.238;2024-03-08T11:12:37;44.83;;;19.58;;
71048;SDS011;58704;53.358;-6.238;2024-03-08T11:15:12;41.00;;;18.20;;
71048;SDS011;58704;53.358;-6.238;2024-03-08T11:20:08;39.70;;;19.02;;
71048;SDS011;58704;53.358;-6.238;2024-03-08T11:22:40;36.10;;;18.55;;
71048;SDS011;58704;53.358;-6.238;2024-03-08T11:25:08;38.83;;;18.70;;
71048;SDS011;58704;53.358;-6.238;2024-03-08T11:27:38;43.58;;;18.05;;
71048;SDS011;58704;53.358;-6.238;2024-03-08T11:30:04;38.72;;;17.48;;
71048;SDS011;58704;53.358;-6.238;2024-03-08T11:32:36;38.67;;;17.95;;
71048;SDS011;58704;53.358;-6.238;2024-03-08T11:35:03;42.38;;;19.50;;
71048;SDS011;58704;53.358;-6.238;2024-03-08T11:37:30;40.93;;;18.67;;
71048;SDS011;58704;53.358;-6.238;2024-03-08T11:39:59;37.58;;;17.55;;
71048;SDS011;58704;53.358;-6.238;2024-03-08T11:42:26;40.22;;;18.70;;
71048;SDS011;58704;53.358;-6.238;2024-03-08T11:44:51;37.70;;;17.60;;
71048;SDS011;58704;53.358;-6.238;2024-03-08T11:47:17;34.17;;;17.80;;
71048;SDS011;58704;53.358;-6.238;2024-03-08T11:49:42;36.10;;;17.70;;
71048;SDS011;58704;53.358;-6.238;2024-03-08T11:52:13;34.75;;;17.77;;
71048;SDS011;58704;53.358;-6.238;2024-03-08T11:54:39;38.57;;;17.93;;
71048;SDS011;58704;53.358;-6.238;2024-03-08T11:57:04;41.15;;;19.25;;
71048;SDS011;58704;53.358;-6.238;2024-03-08T11:59:30;48.40;;;20.83;;
71048;SDS011;58704;53.358;-6.238;2024-03-08T12:01:58;36.70;;;17.30;;
71048;SDS011;58704;53.358;-6.238;2024-03-08T12:04:23;35.10;;;17.20;;
71048;SDS011;58704;53.358;-6.238;2024-03-08T12:06:49;33.90;;;17.38;;
71048;SDS011;58704;53.358;-6.238;2024-03-08T12:09:14;40.47;;;19.27;;
71048;SDS011;58704;53.358;-6.238;2024-03-08T12:11:41;38.23;;;19.20;;
71048;SDS011;58704;53.358;-6.238;2024-03-08T12:14:07;35.67;;;18.65;;
71048;SDS011;58704;53.358;-6.238;2024-03-08T12:16:33;39.57;;;18.13;;
71048;SDS011;58704;53.358;-6.238;2024-03-08T12:18:59;37.10;;;18.50;;
71048;SDS011;58704;53.358;-6.238;2024-03-08T12:21:25;37.73;;;18.97;;
71048;SDS011;58704;53.358;-6.238;2024-03-08T12:24:04;41.67;;;18.40;;
71048;SDS011;58704;53.358;-6.238;2024-03-08T12:26:30;41.88;;;18.55;;
71048;SDS011;58704;53.358;-6.238;2024-03-08T12:29:13;41.47;;;17.73;;
71048;SDS011;58704;53.358;-6.238;2024-03-08T12:31:39;40.75;;;18.08;;
71048;SDS011;58704;53.358;-6.238;2024-03-08T12:34:04;37.07;;;18.03;;
71048;SDS011;58704;53.358;-6.238;2024-03-08T12:36:29;59.37;;;19.80;;
71048;SDS011;58704;53.358;-6.238;2024-03-08T12:38:55;37.23;;;16.63;;
71048;SDS011;58704;53.358;-6.238;2024-03-08T12:41:20;39.77;;;18.10;;
71048;SDS011;58704;53.358;-6.238;2024-03-08T12:43:46;38.53;;;16.75;;
71048;SDS011;58704;53.358;-6.238;2024-03-08T12:46:15;38.42;;;18.77;;
71048;SDS011;58704;53.358;-6.238;2024-03-08T12:48:40;46.50;;;16.97;;
71048;SDS011;58704;53.358;-6.238;2024-03-08T12:51:06;38.33;;;16.33;;
71048;SDS011;58704;53.358;-6.238;2024-03-08T12:53:32;43.15;;;17.15;;
71048;SDS011;58704;53.358;-6.238;2024-03-08T12:55:57;35.77;;;17.20;;
71048;SDS011;58704;53.358;-6.238;2024-03-08T12:58:22;37.30;;;16.90;;
71048;SDS011;58704;53.358;-6.238;2024-03-08T13:00:48;45.43;;;17.27;;
71048;SDS011;58704;53.358;-6.238;2024-03-08T13:03:14;43.22;;;18.35;;
71048;SDS011;58704;53.358;-6.238;2024-03-08T13:05:39;44.30;;;17.67;;
71048;SDS011;58704;53.358;-6.238;2024-03-08T13:08:05;42.00;;;18.27;;
71048;SDS011;58704;53.358;-6.238;2024-03-08T13:10:31;39.00;;;16.90;;
71048;SDS011;58704;53.358;-6.238;2024-03-08T13:12:56;41.97;;;18.07;;
71048;SDS011;58704;53.358;-6.238;2024-03-08T13:15:21;34.93;;;17.27;;
71048;SDS011;58704;53.358;-6.238;2024-03-08T13:17:47;33.07;;;16.50;;
71048;SDS011;58704;53.358;-6.238;2024-03-08T13:20:13;34.92;;;17.95;;
71048;SDS011;58704;53.358;-6.238;2024-03-08T13:22:41;43.88;;;18.33;;
71048;SDS011;58704;53.358;-6.238;2024-03-08T13:25:06;34.63;;;17.40;;
71048;SDS011;58704;53.358;-6.238;2024-03-08T13:27:32;40.77;;;17.27;;
71048;SDS011;58704;53.358;-6.238;2024-03-08T13:29:57;35.43;;;16.20;;
71048;SDS011;58704;53.358;-6.238;2024-03-08T13:32:22;36.73;;;17.47;;
71048;SDS011;58704;53.358;-6.238;2024-03-08T13:34:49;33.30;;;16.50;;
71048;SDS011;58704;53.358;-6.238;2024-03-08T13:37:15;40.25;;;17.58;;
71048;SDS011;58704;53.358;-6.238;2024-03-08T13:39:41;38.93;;;18.03;;
71048;SDS011;58704;53.358;-6.238;2024-03-08T13:42:08;40.38;;;18.42;;
71048;SDS011;58704;53.358;-6.238;2024-03-08T13:44:36;42.47;;;17.48;;
71048;SDS011;58704;53.358;-6.238;2024-03-08T13:47:02;39.87;;;16.03;;
71048;SDS011;58704;53.358;-6.238;2024-03-08T13:49:29;42.92;;;16.88;;
71048;SDS011;58704;53.358;-6.238;2024-03-08T13:51:54;36.60;;;16.07;;
71048;SDS011;58704;53.358;-6.238;2024-03-08T13:54:20;37.20;;;17.40;;
71048;SDS011;58704;53.358;-6.238;2024-03-08T13:56:46;37.88;;;17.23;;
71048;SDS011;58704;53.358;-6.238;2024-03-08T13:59:11;38.37;;;16.53;;
71048;SDS011;58704;53.358;-6.238;2024-03-08T14:01:37;38.23;;;16.77;;
71048;SDS011;58704;53.358;-6.238;2024-03-08T14:04:02;43.40;;;16.63;;
71048;SDS011;58704;53.358;-6.238;2024-03-08T14:06:29;35.65;;;16.20;;
71048;SDS011;58704;53.358;-6.238;2024-03-08T14:08:55;35.95;;;17.05;;